Time;durP1;ratioP1;P1;durP2;ratioP2;P2;SDS_P1;SDS_P2;PMS_P1;PMS_P2;Temp;Humidity;BMP_temperature;BMP_pressure;BME280_temperature;BME280_humidity;BME280_pressure;Samples;Min_cycle;Max_cycle;Signal;HPM_P1;HPM_P2
2022/07/22 00:02:22;;;;;;;19.33;3.88;;;15.00;99.90;;;;;;5052925;28;20049;-26
2022/07/22 00:04:47;;;;;;;14.30;3.30;;;15.00;99.90;;;;;;5054851;28;20083;-26
2022/07/22 00:07:14;;;;;;;12.85;3.45;;;14.90;99.90;;;;;;5020841;28;20470;-26
2022/07/22 00:09:40;;;;;;;19.60;4.63;;;14.90;99.90;;;;;;5054750;28;20045;-26
2022/07/22 00:12:06;;;;;;;13.98;2.83;;;14.90;99.90;;;;;;5054587;28;20049;-27
2022/07/22 00:14:32;;;;;;;15.07;3.30;;;14.90;89.00;;;;;;5054818;28;20044;-26
2022/07/22 00:16:58;;;;;;;22.75;3.97;;;14.90;70.40;;;;;;5053045;28;20053;-26
2022/07/22 00:19:24;;;;;;;18.50;3.10;;;14.90;1.00;;;;;;5036363;28;20045;-26
2022/07/22 00:21:51;;;;;;;15.95;3.90;;;14.90;1.00;;;;;;5053700;28;20647;-26
2022/07/22 00:24:16;;;;;;;18.00;3.97;;;14.90;1.00;;;;;;5055977;28;20072;-26
2022/07/22 00:26:43;;;;;;;7.93;2.65;;;14.90;1.00;;;;;;5055027;28;20076;-26
2022/07/22 00:29:08;;;;;;;12.95;3.05;;;14.90;1.00;;;;;;5053223;28;20053;-26
2022/07/22 00:31:35;;;;;;;7.22;2.70;;;14.80;1.00;;;;;;5053712;28;20053;-27
2022/07/22 00:34:01;;;;;;;15.60;3.15;;;14.80;1.00;;;;;;5054309;28;20056;-26
2022/07/22 00:36:27;;;;;;;12.68;2.75;;;14.80;1.00;;;;;;5054416;28;20124;-27
2022/07/22 00:38:53;;;;;;;12.45;2.78;;;14.80;1.00;;;;;;5053145;28;20057;-26
2022/07/22 00:41:19;;;;;;;10.75;2.70;;;14.80;1.00;;;;;;5052441;28;20049;-27
2022/07/22 00:44:01;;;;;;;17.05;2.67;;;14.80;1.00;;;;;;5052140;28;20055;-26
2022/07/22 00:46:29;;;;;;;15.20;2.78;;;14.80;1.00;;;;;;5053139;28;20073;-26
2022/07/22 00:48:55;;;;;;;8.88;2.45;;;14.80;1.00;;;;;;5035823;28;20522;-26
2022/07/22 00:51:22;;;;;;;9.90;2.28;;;14.80;1.00;;;;;;5053191;28;20171;-27
2022/07/22 00:53:49;;;;;;;17.60;3.95;;;14.90;99.90;;;;;;5052620;28;20593;-26
2022/07/22 00:56:15;;;;;;;12.75;2.58;;;14.80;99.90;;;;;;5055055;28;20039;-27
2022/07/22 00:58:42;;;;;;;11.93;2.92;;;14.90;99.90;;;;;;5052717;28;20499;-27
2022/07/22 01:01:08;;;;;;;7.88;2.75;;;14.90;99.90;;;;;;5053719;28;20075;-27
2022/07/22 01:03:34;;;;;;;11.45;2.55;;;14.90;99.90;;;;;;5052503;28;20487;-27
2022/07/22 01:06:00;;;;;;;11.68;2.83;;;14.90;99.90;;;;;;5053620;28;20061;-27
2022/07/22 01:08:26;;;;;;;10.93;2.35;;;14.90;99.90;;;;;;5068286;28;20052;-28
2022/07/22 01:10:52;;;;;;;10.25;2.25;;;14.90;99.90;;;;;;5033484;28;20103;-28
2022/07/22 01:13:17;;;;;;;8.32;1.90;;;14.90;99.90;;;;;;5040611;28;20044;-28
2022/07/22 01:15:43;;;;;;;11.60;2.13;;;14.90;69.20;;;;;;5053626;28;20468;-27
2022/07/22 01:18:09;;;;;;;13.85;2.40;;;14.90;5.00;;;;;;5053650;28;20045;-28
2022/07/22 01:20:35;;;;;;;10.73;2.40;;;14.80;59.20;;;;;;5053677;28;20099;-27
2022/07/22 01:23:01;;;;;;;10.57;2.65;;;14.80;1.10;;;;;;5053281;28;20518;-27
2022/07/22 01:25:27;;;;;;;9.93;2.08;;;14.80;19.50;;;;;;5053249;28;20052;-27
2022/07/22 01:27:53;;;;;;;12.77;2.30;;;14.80;21.00;;;;;;5052881;28;20053;-27
2022/07/22 01:30:19;;;;;;;6.10;1.98;;;14.80;1.00;;;;;;5053607;28;20045;-28
2022/07/22 01:32:45;;;;;;;11.93;1.90;;;14.80;1.00;;;;;;5053542;28;20128;-27
2022/07/22 01:35:11;;;;;;;14.15;2.47;;;14.80;1.00;;;;;;5051929;28;20041;-28
2022/07/22 01:37:37;;;;;;;9.73;2.38;;;14.80;1.00;;;;;;5053486;28;20080;-28
2022/07/22 01:40:03;;;;;;;15.57;4.43;;;14.80;1.00;;;;;;5054293;28;20120;-28
2022/07/22 01:42:29;;;;;;;9.32;1.98;;;14.70;66.50;;;;;;5052495;28;20390;-28
2022/07/22 01:44:55;;;;;;;9.10;1.98;;;14.70;97.20;;;;;;5035211;28;20124;-28
2022/07/22 01:47:20;;;;;;;9.63;1.80;;;14.70;1.00;;;;;;5052444;28;20049;-28
2022/07/22 01:49:46;;;;;;;7.93;1.85;;;14.70;37.00;;;;;;5053400;28;20395;-28
2022/07/22 01:52:12;;;;;;;9.18;1.67;;;14.60;82.40;;;;;;5053028;28;20394;-28
2022/07/22 01:54:37;;;;;;;11.30;2.25;;;14.60;1.00;;;;;;5055676;28;20044;-28
2022/07/22 01:57:04;;;;;;;8.80;2.28;;;14.60;1.00;;;;;;5056837;28;20053;-28
2022/07/22 01:59:30;;;;;;;12.80;2.10;;;14.70;99.90;;;;;;5039469;28;20438;-28
2022/07/22 02:01:55;;;;;;;10.60;1.95;;;14.70;99.90;;;;;;5056221;28;20055;-28
2022/07/22 02:04:21;;;;;;;11.40;2.35;;;14.70;99.90;;;;;;5056635;28;20114;-28
2022/07/22 02:06:47;;;;;;;11.10;1.83;;;14.70;99.90;;;;;;5056745;28;20080;-28
2022/07/22 02:09:13;;;;;;;8.75;2.85;;;14.70;99.90;;;;;;5039185;28;20067;-28
2022/07/22 02:11:39;;;;;;;8.55;1.95;;;14.60;99.90;;;;;;5059996;28;20123;-28
2022/07/22 02:14:04;;;;;;;10.65;1.60;;;14.60;99.90;;;;;;5056952;28;20510;-28
2022/07/22 02:16:30;;;;;;;6.53;1.45;;;14.60;99.90;;;;;;5056917;28;20045;-29
2022/07/22 02:18:56;;;;;;;6.05;1.42;;;14.60;99.90;;;;;;5055748;28;20077;-28
2022/07/22 02:21:22;;;;;;;7.63;1.70;;;14.60;13.30;;;;;;5056022;28;20044;-27
2022/07/22 02:23:48;;;;;;;10.40;1.77;;;14.60;1.00;;;;;;5058475;28;20049;-29
2022/07/22 02:26:14;;;;;;;8.82;2.15;;;14.50;28.80;;;;;;5056379;28;20363;-28
2022/07/22 02:28:39;;;;;;;9.52;1.83;;;14.50;1.00;;;;;;5056900;28;20080;-28
2022/07/22 02:31:05;;;;;;;7.85;1.85;;;14.50;1.00;;;;;;5055131;28;20053;-29
2022/07/22 02:33:31;;;;;;;6.57;1.52;;;14.50;1.00;;;;;;5056499;28;20051;-28
2022/07/22 02:35:57;;;;;;;6.13;1.50;;;14.50;1.00;;;;;;5054684;28;20045;-28
2022/07/22 02:38:23;;;;;;;6.13;1.92;;;14.50;1.00;;;;;;5055583;28;20051;-28
2022/07/22 02:40:48;;;;;;;7.07;1.50;;;14.40;1.00;;;;;;5056381;28;20124;-28
2022/07/22 02:43:14;;;;;;;6.22;1.38;;;14.40;1.00;;;;;;5056433;28;20045;-28
2022/07/22 02:45:40;;;;;;;9.30;1.45;;;14.50;1.00;;;;;;5055203;28;20095;-28
2022/07/22 02:48:06;;;;;;;8.00;1.45;;;14.50;1.00;;;;;;5057172;28;20196;-28
2022/07/22 02:50:36;;;;;;;8.90;1.70;;;14.50;1.00;;;;;;5039023;28;20430;-27
2022/07/22 02:53:02;;;;;;;6.85;1.45;;;14.50;1.00;;;;;;5055821;28;20045;-28
2022/07/22 02:55:28;;;;;;;9.98;2.00;;;14.50;1.00;;;;;;5056101;28;20083;-29
2022/07/22 02:57:53;;;;;;;8.90;1.40;;;14.50;13.00;;;;;;5055175;28;20090;-28
2022/07/22 03:00:20;;;;;;;5.35;1.73;;;14.50;82.40;;;;;;5038583;28;20052;-28
2022/07/22 03:02:45;;;;;;;8.93;1.67;;;14.50;99.90;;;;;;5055458;28;20041;-28
2022/07/22 03:05:12;;;;;;;7.85;1.90;;;14.40;99.90;;;;;;5054714;28;20049;-28
2022/07/22 03:07:38;;;;;;;6.30;1.40;;;14.50;99.90;;;;;;5055946;28;20045;-28
2022/07/22 03:10:04;;;;;;;8.40;1.50;;;14.40;99.90;;;;;;5055851;28;20102;-28
2022/07/22 03:12:30;;;;;;;4.57;1.67;;;14.40;99.90;;;;;;5055876;28;20134;-28
2022/07/22 03:14:56;;;;;;;12.50;2.15;;;14.40;99.90;;;;;;5055771;28;20500;-27
2022/07/22 03:17:22;;;;;;;7.10;1.83;;;14.40;99.90;;;;;;5055741;28;20041;-27
2022/07/22 03:19:47;;;;;;;9.15;2.58;;;14.40;99.90;;;;;;5056017;28;20045;-29
2022/07/22 03:22:13;;;;;;;9.90;1.55;;;14.40;99.90;;;;;;5055030;28;20043;-28
2022/07/22 03:24:39;;;;;;;10.70;1.90;;;14.50;99.90;;;;;;5054771;28;20037;-28
2022/07/22 03:27:05;;;;;;;9.35;1.88;;;14.40;99.90;;;;;;5053348;28;20051;-27
2022/07/22 03:29:30;;;;;;;6.90;1.60;;;14.40;99.90;;;;;;5056227;28;20048;-28
2022/07/22 03:31:56;;;;;;;9.10;2.28;;;14.50;99.90;;;;;;5056042;28;20477;-28
2022/07/22 03:34:22;;;;;;;7.05;1.80;;;14.50;99.90;;;;;;5054140;28;20052;-28
2022/07/22 03:36:47;;;;;;;8.48;2.17;;;14.50;99.90;;;;;;5057283;28;20045;-27
2022/07/22 03:39:13;;;;;;;7.88;1.90;;;14.50;99.90;;;;;;5055405;28;20479;-28
2022/07/22 03:41:39;;;;;;;9.93;2.35;;;14.50;99.90;;;;;;5054613;28;20132;-28
2022/07/22 03:44:04;;;;;;;5.82;1.80;;;14.50;99.90;;;;;;5035409;28;20046;-28
2022/07/22 03:46:30;;;;;;;12.30;2.55;;;14.50;99.90;;;;;;5034311;28;20161;-28
2022/07/22 03:48:56;;;;;;;10.23;1.95;;;14.50;1.00;;;;;;5035268;28;20045;-28
2022/07/22 03:51:21;;;;;;;11.68;2.10;;;14.50;99.90;;;;;;5034529;28;20045;-27
2022/07/22 03:53:47;;;;;;;12.68;2.10;;;14.50;99.90;;;;;;5046921;28;20044;-28
2022/07/22 03:56:13;;;;;;;10.10;2.03;;;14.40;99.90;;;;;;5055522;28;20041;-28
2022/07/22 03:58:38;;;;;;;7.72;1.70;;;14.40;99.90;;;;;;5053971;28;20101;-28
2022/07/22 04:01:04;;;;;;;11.50;1.98;;;14.40;99.90;;;;;;5054946;28;20049;-28
2022/07/22 04:03:30;;;;;;;8.13;1.70;;;14.40;99.90;;;;;;5054951;28;20049;-28
2022/07/22 04:05:55;;;;;;;5.88;1.73;;;14.50;99.90;;;;;;5055217;28;20088;-27
2022/07/22 04:08:21;;;;;;;9.82;1.48;;;14.50;99.90;;;;;;5055384;28;20049;-28
2022/07/22 04:10:47;;;;;;;10.75;2.25;;;14.50;99.90;;;;;;5053798;28;20037;-30
2022/07/22 04:13:13;;;;;;;11.23;1.52;;;14.50;99.90;;;;;;5055027;28;20037;-28
2022/07/22 04:15:38;;;;;;;8.30;1.67;;;14.50;99.90;;;;;;5052704;28;20545;-28
2022/07/22 04:18:04;;;;;;;9.48;1.38;;;14.50;99.90;;;;;;5054563;28;20092;-28
2022/07/22 04:20:30;;;;;;;6.40;1.92;;;14.50;99.90;;;;;;5054674;28;20045;-27
2022/07/22 04:22:55;;;;;;;6.30;1.23;;;14.50;99.90;;;;;;5054576;28;20041;-27
2022/07/22 04:25:21;;;;;;;11.88;2.33;;;14.50;99.90;;;;;;5053221;28;20037;-27
2022/07/22 04:27:47;;;;;;;6.43;1.38;;;14.50;99.90;;;;;;5054433;28;20132;-27
2022/07/22 04:30:12;;;;;;;9.93;1.70;;;14.60;90.20;;;;;;5054362;28;20041;-28
2022/07/22 04:32:38;;;;;;;9.05;1.67;;;14.60;18.90;;;;;;5053972;28;20049;-29
2022/07/22 04:35:04;;;;;;;6.72;1.70;;;14.60;1.00;;;;;;5038050;28;20041;-27
2022/07/22 04:37:31;;;;;;;5.28;1.35;;;14.50;1.00;;;;;;5053701;28;20049;-28
2022/07/22 04:39:56;;;;;;;10.23;1.50;;;14.60;1.00;;;;;;5054815;28;20179;-29
2022/07/22 04:42:22;;;;;;;11.73;1.98;;;14.60;1.00;;;;;;5054384;28;20115;-28
2022/07/22 04:44:48;;;;;;;5.60;1.27;;;14.60;1.00;;;;;;5053575;28;20053;-28
2022/07/22 04:47:14;;;;;;;7.65;1.98;;;14.60;1.00;;;;;;5035810;28;20041;-27
2022/07/22 04:49:39;;;;;;;8.30;1.67;;;14.60;32.70;;;;;;5053143;28;20155;-28
2022/07/22 04:52:05;;;;;;;9.93;1.77;;;14.60;82.40;;;;;;5052471;28;20391;-27
2022/07/22 04:54:31;;;;;;;10.00;2.10;;;14.70;99.90;;;;;;5054168;28;20059;-27
2022/07/22 04:56:57;;;;;;;9.60;1.95;;;14.60;99.90;;;;;;5053565;28;20049;-28
2022/07/22 04:59:23;;;;;;;9.63;2.00;;;14.70;99.90;;;;;;5060545;28;20049;-27
2022/07/22 05:01:48;;;;;;;6.53;1.20;;;14.70;99.90;;;;;;5055249;28;20037;-27
2022/07/22 05:04:14;;;;;;;7.40;1.70;;;14.80;97.50;;;;;;5053328;28;20045;-27
2022/07/22 05:06:40;;;;;;;8.63;1.67;;;14.80;70.40;;;;;;5052085;28;20052;-28
2022/07/22 05:09:06;;;;;;;10.55;1.63;;;14.80;67.30;;;;;;5032765;28;20037;-27
2022/07/22 05:11:32;;;;;;;8.70;1.45;;;14.90;59.80;;;;;;5033861;28;20045;-27
2022/07/22 05:13:57;;;;;;;6.55;1.35;;;14.90;1.00;;;;;;5033897;28;20080;-28
2022/07/22 05:16:23;;;;;;;10.32;2.13;;;14.90;1.00;;;;;;5052788;28;20461;-27
2022/07/22 05:18:49;;;;;;;9.18;1.33;;;14.90;1.00;;;;;;5053527;28;20447;-27
2022/07/22 05:21:14;;;;;;;11.57;1.98;;;15.00;1.00;;;;;;5053636;28;20044;-27
2022/07/22 05:23:40;;;;;;;7.93;1.77;;;15.00;1.00;;;;;;5052500;28;20084;-28
2022/07/22 05:26:06;;;;;;;6.18;1.42;;;15.00;1.00;;;;;;5054150;28;20083;-27
2022/07/22 05:28:33;;;;;;;4.38;1.38;;;15.10;1.00;;;;;;5052753;28;20037;-27
2022/07/22 05:30:58;;;;;;;5.75;1.30;;;15.10;1.00;;;;;;5053509;28;20106;-27
2022/07/22 05:33:24;;;;;;;8.02;1.60;;;15.20;1.00;;;;;;5053795;28;20052;-27
2022/07/22 05:35:50;;;;;;;8.60;1.70;;;15.20;1.00;;;;;;5053082;28;20529;-28
2022/07/22 05:38:16;;;;;;;7.45;1.70;;;15.20;1.00;;;;;;5054340;28;20048;-28
2022/07/22 05:40:41;;;;;;;6.45;1.50;;;15.30;1.00;;;;;;5051528;28;20478;-28
2022/07/22 05:43:07;;;;;;;7.50;1.50;;;15.30;1.00;;;;;;5035929;28;20095;-27
2022/07/22 05:45:33;;;;;;;5.80;1.67;;;15.40;1.00;;;;;;5052213;28;20045;-28
2022/07/22 05:47:59;;;;;;;9.40;2.20;;;15.50;1.00;;;;;;5053365;28;20041;-27
2022/07/22 05:50:24;;;;;;;9.10;1.73;;;15.60;1.00;;;;;;5053393;28;20057;-27
2022/07/22 05:52:50;;;;;;;4.95;1.20;;;15.60;1.00;;;;;;5035491;28;20376;-27
2022/07/22 05:55:16;;;;;;;6.63;1.45;;;15.70;1.00;;;;;;5053477;28;20467;-27
2022/07/22 05:57:42;;;;;;;4.53;1.50;;;15.70;1.00;;;;;;5052576;28;20127;-27
2022/07/22 06:00:09;;;;;;;7.78;1.95;;;15.80;99.90;;;;;;5052215;28;20559;-27
2022/07/22 06:02:35;;;;;;;9.13;1.40;;;15.80;99.90;;;;;;5051506;28;20077;-27
2022/07/22 06:05:01;;;;;;;8.52;1.38;;;15.90;99.90;;;;;;5052673;28;20064;-27
2022/07/22 06:07:27;;;;;;;9.77;1.23;;;15.90;99.90;;;;;;5049893;28;20045;-27
2022/07/22 06:09:53;;;;;;;6.88;1.48;;;16.00;99.90;;;;;;5059020;28;20042;-28
2022/07/22 06:12:19;;;;;;;8.70;1.95;;;16.00;99.90;;;;;;5055256;28;20402;-27
2022/07/22 06:14:46;;;;;;;10.18;1.30;;;16.00;99.90;;;;;;5052023;28;20045;-27
2022/07/22 06:17:12;;;;;;;5.75;1.67;;;16.10;99.90;;;;;;5046441;28;20037;-27
2022/07/22 06:19:38;;;;;;;6.93;1.75;;;16.10;99.90;;;;;;5061468;28;20395;-27
2022/07/22 06:22:04;;;;;;;8.02;1.48;;;16.10;99.90;;;;;;5046216;28;20684;-28
2022/07/22 06:24:30;;;;;;;9.93;1.60;;;16.10;99.90;;;;;;5052866;28;20044;-27
2022/07/22 06:26:56;;;;;;;7.95;1.70;;;16.00;99.90;;;;;;5052907;28;20073;-27
2022/07/22 06:29:21;;;;;;;7.63;1.95;;;16.00;99.90;;;;;;5052852;28;20049;-27
2022/07/22 06:31:47;;;;;;;5.57;1.60;;;16.10;99.90;;;;;;5052272;28;20473;-28
2022/07/22 06:34:13;;;;;;;7.70;1.52;;;16.10;99.90;;;;;;5052946;28;20475;-27
2022/07/22 06:36:39;;;;;;;9.73;1.38;;;16.10;99.90;;;;;;5052881;28;20049;-27
2022/07/22 06:39:04;;;;;;;8.75;1.48;;;16.20;99.90;;;;;;5052947;28;20076;-27
2022/07/22 06:41:30;;;;;;;9.68;1.65;;;16.30;99.90;;;;;;5054692;28;20102;-27
2022/07/22 06:43:56;;;;;;;4.35;0.90;;;16.30;99.90;;;;;;5056983;28;20045;-27
2022/07/22 06:46:22;;;;;;;5.18;1.65;;;16.30;99.90;;;;;;5055167;28;20044;-27
2022/07/22 06:48:47;;;;;;;6.03;1.08;;;16.40;99.90;;;;;;5054084;28;20092;-27
2022/07/22 06:51:13;;;;;;;3.88;1.42;;;16.40;99.90;;;;;;5056293;28;20060;-27
2022/07/22 06:53:39;;;;;;;6.93;1.10;;;16.30;99.90;;;;;;5039590;28;20053;-27
2022/07/22 06:56:05;;;;;;;5.72;1.20;;;16.40;99.90;;;;;;5038513;28;20099;-27
2022/07/22 06:58:31;;;;;;;8.85;1.67;;;16.40;99.90;;;;;;5057032;28;20059;-28
2022/07/22 07:00:56;;;;;;;8.80;1.00;;;16.40;99.90;;;;;;5054991;28;20395;-27
2022/07/22 07:03:25;;;;;;;7.78;1.33;;;16.50;99.90;;;;;;5056094;28;20552;-28
2022/07/22 07:05:51;;;;;;;2.58;0.85;;;16.50;99.90;;;;;;5054065;28;20061;-27
2022/07/22 07:08:17;;;;;;;7.85;1.83;;;16.50;99.90;;;;;;5056032;28;20056;-27
2022/07/22 07:10:43;;;;;;;9.55;1.20;;;16.60;99.90;;;;;;5055973;28;20557;-27
2022/07/22 07:13:09;;;;;;;12.32;2.10;;;16.70;96.40;;;;;;5055258;28;20049;-27
2022/07/22 07:15:35;;;;;;;9.05;1.30;;;16.80;13.90;;;;;;5055161;28;20099;-27
2022/07/22 07:18:00;;;;;;;7.20;1.23;;;16.80;1.00;;;;;;5054015;28;20414;-28
2022/07/22 07:20:26;;;;;;;4.80;0.80;;;16.90;1.00;;;;;;5056806;28;20482;-27
2022/07/22 07:22:52;;;;;;;7.45;1.13;;;17.00;1.00;;;;;;5054832;28;20442;-27
2022/07/22 07:25:18;;;;;;;4.28;1.10;;;17.10;1.00;;;;;;5055749;28;20049;-26
2022/07/22 07:27:45;;;;;;;4.78;0.77;;;17.20;1.00;;;;;;5055497;28;20120;-27
2022/07/22 07:30:11;;;;;;;4.47;1.10;;;17.20;99.90;;;;;;5041177;28;20049;-27
2022/07/22 07:32:37;;;;;;;6.65;1.00;;;17.20;99.90;;;;;;5044101;28;20102;-28
2022/07/22 07:35:05;;;;;;;5.75;0.85;;;17.20;99.90;;;;;;5053634;28;20048;-27
2022/07/22 07:37:31;;;;;;;8.30;1.00;;;17.10;99.90;;;;;;5055466;28;20107;-27
2022/07/22 07:39:57;;;;;;;6.22;1.13;;;17.10;99.90;;;;;;5055458;28;20450;-27
2022/07/22 07:42:23;;;;;;;7.05;0.93;;;17.10;99.90;;;;;;5055344;28;20048;-28
2022/07/22 07:44:49;;;;;;;4.20;1.48;;;17.10;99.90;;;;;;5054190;28;20072;-27
2022/07/22 07:47:17;;;;;;;6.07;1.30;;;17.20;99.90;;;;;;5055833;28;20091;-27
2022/07/22 07:49:47;;;;;;;7.85;1.60;;;17.20;99.90;;;;;;5054038;28;20049;-27
2022/07/22 07:52:13;;;;;;;4.78;0.90;;;17.30;99.90;;;;;;5054739;28;20048;-27
2022/07/22 07:54:39;;;;;;;7.50;0.88;;;17.40;99.90;;;;;;5055124;28;20048;-27
2022/07/22 07:57:10;;;;;;;6.95;0.90;;;17.50;99.90;;;;;;5052729;28;20055;-27
2022/07/22 07:59:37;;;;;;;9.15;1.10;;;17.50;99.90;;;;;;5055090;28;20045;-27
2022/07/22 08:02:03;;;;;;;6.88;1.27;;;17.50;99.90;;;;;;5054989;28;20044;-27
2022/07/22 08:04:29;;;;;;;3.75;0.80;;;17.50;99.90;;;;;;5054774;28;20471;-27
2022/07/22 08:06:55;;;;;;;6.50;1.20;;;17.40;99.90;;;;;;5053250;28;20067;-27
2022/07/22 08:09:21;;;;;;;6.22;0.95;;;17.40;99.90;;;;;;5055426;28;20465;-27
2022/07/22 08:11:46;;;;;;;4.95;0.60;;;17.30;99.90;;;;;;5054800;28;20479;-27
2022/07/22 08:14:12;;;;;;;8.05;1.77;;;17.10;99.90;;;;;;5054697;28;20134;-27
2022/07/22 08:16:38;;;;;;;7.65;1.40;;;17.10;99.90;;;;;;5052314;28;20043;-28
2022/07/22 08:19:04;;;;;;;5.38;1.10;;;17.00;99.90;;;;;;5054652;28;20483;-27
2022/07/22 08:21:29;;;;;;;10.82;0.77;;;17.00;1.00;;;;;;5054586;28;20045;-27
2022/07/22 08:23:55;;;;;;;5.70;0.85;;;17.00;99.90;;;;;;5053289;28;20045;-28
2022/07/22 08:26:21;;;;;;;3.50;0.70;;;17.00;99.90;;;;;;5064440;28;20135;-28
2022/07/22 08:28:47;;;;;;;5.05;1.38;;;16.90;99.90;;;;;;5054419;28;20475;-27
2022/07/22 08:31:13;;;;;;;6.70;0.75;;;17.00;99.90;;;;;;5069150;28;20048;-27
2022/07/22 08:33:46;;;;;;;4.65;0.82;;;17.00;99.90;;;;;;5054402;28;20053;-27
2022/07/22 08:36:12;;;;;;;4.55;0.85;;;17.00;99.90;;;;;;5054336;28;20135;-27
2022/07/22 08:38:40;;;;;;;7.00;0.80;;;17.00;99.90;;;;;;5054271;28;20387;-27
2022/07/22 08:41:06;;;;;;;3.13;0.70;;;17.10;99.90;;;;;;5054082;28;20049;-28
2022/07/22 08:43:35;;;;;;;4.40;0.70;;;17.30;99.90;;;;;;5054013;28;20372;-27
2022/07/22 08:46:01;;;;;;;3.80;0.73;;;17.30;99.90;;;;;;5053660;28;20491;-27
2022/07/22 08:48:27;;;;;;;2.50;0.75;;;17.30;99.90;;;;;;5047617;28;20525;-27
2022/07/22 08:50:53;;;;;;;4.18;0.70;;;17.30;97.20;;;;;;5054077;28;20045;-27
2022/07/22 08:53:19;;;;;;;3.97;0.45;;;17.30;99.90;;;;;;5020694;28;20044;-27
2022/07/22 08:55:46;;;;;;;2.85;0.60;;;17.40;99.90;;;;;;5050478;28;20046;-28
2022/07/22 08:58:13;;;;;;;7.68;0.70;;;17.50;91.90;;;;;;5067539;28;20055;-27
2022/07/22 09:00:39;;;;;;;4.47;0.70;;;17.60;99.90;;;;;;5036085;28;20041;-27
2022/07/22 09:03:22;;;;;;;5.18;0.85;;;17.80;99.90;;;;;;5053099;28;20163;-28
2022/07/22 09:05:51;;;;;;;;;;;17.90;74.70;;;;;;5053003;28;20055;-27
2022/07/22 09:08:17;;;;;;;3.72;0.50;;;17.80;99.90;;;;;;5053660;28;19967;-27
2022/07/22 09:10:42;;;;;;;4.80;0.88;;;17.90;30.60;;;;;;5052873;28;20052;-27
2022/07/22 09:13:11;;;;;;;3.85;0.98;;;18.00;99.90;;;;;;5053829;28;20479;-28
2022/07/22 09:15:50;;;;;;;1.77;0.50;;;18.10;1.00;;;;;;5054090;28;20087;-27
2022/07/22 09:18:16;;;;;;;3.63;0.77;;;18.20;99.90;;;;;;5053753;28;20037;-28
2022/07/22 09:20:44;;;;;;;5.47;0.77;;;18.10;99.90;;;;;;5053065;28;20041;-28
2022/07/22 09:23:22;;;;;;;5.25;1.05;;;18.00;1.00;;;;;;5052882;28;20103;-27
2022/07/22 09:25:47;;;;;;;1.98;0.50;;;17.90;1.00;;;;;;5051004;28;20143;-27
2022/07/22 09:28:17;;;;;;;2.13;0.57;;;17.90;1.00;;;;;;5052955;28;20116;-26
2022/07/22 09:30:50;;;;;;;3.67;0.60;;;18.00;1.00;;;;;;5053356;28;20438;-26
2022/07/22 09:33:16;;;;;;;;;;;17.90;23.00;;;;;;5036416;28;20062;-27
2022/07/22 09:35:43;;;;;;;3.72;0.70;;;18.00;1.00;;;;;;5052320;28;19921;-26
2022/07/22 09:38:11;;;;;;;5.13;0.60;;;18.20;13.90;;;;;;5051965;28;20057;-26
2022/07/22 09:40:47;;;;;;;5.57;0.88;;;18.30;41.90;;;;;;5052306;28;20041;-27
2022/07/22 09:43:16;;;;;;;4.60;0.47;;;18.50;1.00;;;;;;5053478;28;20041;-27
2022/07/22 09:45:48;;;;;;;1.52;0.50;;;18.60;1.00;;;;;;5052350;28;20379;-27
2022/07/22 09:48:20;;;;;;;1.23;0.83;;;18.70;99.90;;;;;;5054150;28;20151;-27
2022/07/22 09:50:46;;;;;;;2.30;0.60;;;18.90;99.90;;;;;;5053284;28;20045;-26
2022/07/22 09:53:13;;;;;;;4.38;0.63;;;18.90;99.90;;;;;;5054077;28;20049;-27
2022/07/22 09:55:40;;;;;;;3.40;0.75;;;19.00;99.90;;;;;;5051226;28;20134;-27
2022/07/22 09:58:07;;;;;;;3.08;0.40;;;18.70;99.90;;;;;;5053298;28;20045;-27
2022/07/22 10:00:34;;;;;;;1.45;0.50;;;18.60;99.90;;;;;;5053252;28;20049;-27
2022/07/22 10:03:02;;;;;;;3.95;0.60;;;18.40;1.00;;;;;;5052344;28;20171;-27
2022/07/22 10:05:31;;;;;;;1.80;0.43;;;18.30;1.00;;;;;;5051791;28;20467;-27
2022/07/22 10:07:59;;;;;;;3.08;0.52;;;18.20;1.00;;;;;;5032337;28;20119;-26
2022/07/22 10:10:27;;;;;;;10.18;0.80;;;18.20;1.00;;;;;;5032562;28;20088;-27
2022/07/22 10:12:55;;;;;;;1.83;0.40;;;18.20;1.00;;;;;;5031766;28;20080;-27
2022/07/22 10:15:21;;;;;;;5.28;0.40;;;18.10;1.00;;;;;;5035529;28;20046;-27
2022/07/22 10:17:55;;;;;;;3.78;0.80;;;18.00;1.00;;;;;;5068024;28;20048;-26
2022/07/22 10:20:24;;;;;;;3.40;0.60;;;18.00;99.90;;;;;;5057563;28;20067;-26
2022/07/22 10:22:54;;;;;;;4.55;0.75;;;18.00;99.90;;;;;;5056874;28;20045;-27
2022/07/22 10:25:23;;;;;;;5.55;0.70;;;18.10;99.90;;;;;;5055814;28;20049;-27
2022/07/22 10:28:04;;;;;;;3.38;0.52;;;18.20;99.90;;;;;;5054647;28;20391;-27
2022/07/22 10:30:40;;;;;;;2.67;0.60;;;18.20;9.40;;;;;;5056815;28;20140;-27
2022/07/22 10:33:12;;;;;;;5.18;0.57;;;18.30;13.30;;;;;;5056722;28;20045;-27
2022/07/22 10:35:58;;;;;;;5.13;0.60;;;18.30;1.00;;;;;;5056562;28;20483;-27
2022/07/22 10:38:25;;;;;;;2.15;0.50;;;18.30;1.00;;;;;;5055678;28;20128;-27
2022/07/22 10:41:03;;;;;;;6.68;0.50;;;18.30;1.00;;;;;;5054115;28;20053;-27
2022/07/22 10:43:47;;;;;;;5.43;0.60;;;18.30;1.00;;;;;;5042197;28;20099;-27
2022/07/22 10:46:14;;;;;;;4.10;0.60;;;18.30;3.70;;;;;;5051339;28;20064;-27
2022/07/22 10:48:40;;;;;;;4.25;1.00;;;18.50;99.90;;;;;;5056123;28;20498;-26
2022/07/22 10:51:23;;;;;;;3.95;0.50;;;18.60;91.50;;;;;;5056349;28;20094;-27
2022/07/22 10:53:55;;;;;;;8.73;1.20;;;18.60;91.10;;;;;;5056075;28;20084;-27
2022/07/22 10:56:23;;;;;;;4.45;0.40;;;18.50;29.10;;;;;;5055134;28;20071;-27
2022/07/22 10:59:10;;;;;;;3.75;0.30;;;18.50;1.00;;;;;;5053921;28;20049;-27
2022/07/22 11:01:38;;;;;;;1.02;0.40;;;18.50;1.00;;;;;;5062904;28;20053;-27
2022/07/22 11:04:24;;;;;;;1.67;0.20;;;18.40;1.00;;;;;;5054416;28;20049;-27
2022/07/22 11:06:52;;;;;;;3.22;0.50;;;18.20;1.00;;;;;;5056014;28;20127;-27
2022/07/22 11:09:22;;;;;;;2.13;0.40;;;18.20;1.00;;;;;;5055040;28;20048;-27
2022/07/22 11:11:53;;;;;;;1.92;0.30;;;18.20;1.00;;;;;;5055967;28;20070;-27
2022/07/22 11:14:26;;;;;;;1.90;0.60;;;18.40;1.00;;;;;;5055907;28;20094;-26
2022/07/22 11:16:55;;;;;;;1.95;0.30;;;18.40;99.90;;;;;;5055108;28;20167;-27
2022/07/22 11:19:27;;;;;;;2.97;0.55;;;18.50;1.00;;;;;;5054386;28;20053;-27
2022/07/22 11:21:59;;;;;;;3.60;1.58;;;18.60;99.90;;;;;;5054107;28;20072;-27
2022/07/22 11:24:26;;;;;;;0.75;0.20;;;18.70;99.90;;;;;;5051332;28;20045;-26
2022/07/22 11:26:57;;;;;;;1.65;0.93;;;18.60;99.90;;;;;;5052393;28;20037;-28
2022/07/22 11:29:28;;;;;;;4.50;0.55;;;18.70;99.90;;;;;;5062572;28;20479;-27
2022/07/22 11:31:56;;;;;;;2.92;0.43;;;18.70;99.90;;;;;;5055580;28;20127;-27
2022/07/22 11:34:22;;;;;;;1.65;0.38;;;18.90;99.90;;;;;;5055428;28;20052;-28
2022/07/22 11:36:50;;;;;;;1.95;0.43;;;18.80;99.90;;;;;;5055505;28;20441;-27
2022/07/22 11:39:21;;;;;;;1.00;0.13;;;18.80;99.90;;;;;;5054738;28;20080;-27
2022/07/22 11:41:48;;;;;;;5.65;0.65;;;19.00;96.70;;;;;;5056233;28;20383;-27
2022/07/22 11:44:22;;;;;;;3.90;0.43;;;19.10;99.90;;;;;;5054679;28;20102;-28
2022/07/22 11:46:51;;;;;;;2.30;0.35;;;19.20;11.20;;;;;;5056695;28;20041;-27
2022/07/22 11:49:19;;;;;;;1.00;0.20;;;19.40;28.40;;;;;;5053863;28;20045;-28
2022/07/22 11:51:45;;;;;;;1.55;0.20;;;19.40;1.00;;;;;;5055773;28;20059;-28
2022/07/22 11:54:13;;;;;;;1.63;0.25;;;19.40;1.00;;;;;;5053161;28;20538;-29
2022/07/22 11:56:40;;;;;;;2.05;0.30;;;19.20;73.90;;;;;;5066023;28;20075;-27
2022/07/22 11:59:06;;;;;;;1.05;0.20;;;19.20;61.30;;;;;;5055890;28;20428;-27
2022/07/22 12:01:35;;;;;;;1.55;0.40;;;19.20;22.20;;;;;;5054900;28;20040;-28
2022/07/22 12:04:05;;;;;;;1.25;0.25;;;19.20;1.00;;;;;;5054961;28;20095;-27
2022/07/22 12:06:36;;;;;;;5.15;0.80;;;19.20;1.80;;;;;;5054991;28;20057;-27
2022/07/22 12:09:09;;;;;;;2.72;0.55;;;19.10;27.30;;;;;;5054833;28;20495;-28
2022/07/22 12:11:37;;;;;;;3.45;0.30;;;19.10;1.00;;;;;;5053369;28;20487;-28
2022/07/22 12:14:12;;;;;;;1.80;0.30;;;19.10;1.00;;;;;;5047543;28;20439;-27
2022/07/22 12:16:38;;;;;;;1.83;0.32;;;19.10;1.00;;;;;;5053278;28;20535;-27
2022/07/22 12:19:09;;;;;;;0.70;0.20;;;19.10;1.00;;;;;;5054011;28;20056;-27
2022/07/22 12:21:56;;;;;;;6.38;0.40;;;19.20;1.00;;;;;;5053942;28;20099;-27
2022/07/22 12:24:31;;;;;;;1.35;0.30;;;19.50;1.00;;;;;;5055004;28;20076;-27
2022/07/22 12:27:11;;;;;;;3.03;0.40;;;19.70;1.00;;;;;;5053908;28;20493;-27
2022/07/22 12:29:37;;;;;;;1.42;0.20;;;20.00;1.00;;;;;;5055074;28;20080;-27
2022/07/22 12:32:09;;;;;;;2.88;0.30;;;20.30;99.90;;;;;;5054404;28;20080;-27
2022/07/22 12:34:36;;;;;;;0.40;0.10;;;20.30;45.90;;;;;;5053322;28;20491;-28
2022/07/22 12:37:21;;;;;;;0.82;0.15;;;20.10;99.90;;;;;;5050966;28;20784;-27
2022/07/22 12:40:04;;;;;;;2.40;0.50;;;20.00;1.00;;;;;;5055202;28;20388;-27
2022/07/22 12:42:37;;;;;;;1.73;0.60;;;19.90;99.90;;;;;;5034322;28;20049;-27
2022/07/22 12:45:03;;;;;;;;;;;20.10;99.90;;;;;;5066174;28;20041;-28
2022/07/22 12:48:00;;;;;;;2.53;0.43;;;20.30;99.90;;;;;;5051264;28;19927;-29
2022/07/22 12:50:26;;;;;;;1.67;0.50;;;20.00;99.90;;;;;;5045074;28;20049;-27
2022/07/22 12:52:57;;;;;;;3.50;0.93;;;19.50;1.00;;;;;;5054078;28;20059;-27